sensor_id;sensor_type;location;lat;lon;timestamp;P1;durP1;ratioP1;P2;durP2;ratioP2
44766;SDS011;30487;48.716;9.272;2023-02-28T00:02:19;3.58;;;1.65;;
44766;SDS011;30487;48.716;9.272;2023-02-28T00:04:45;3.72;;;1.73;;
44766;SDS011;30487;48.716;9.272;2023-02-28T00:07:17;3.35;;;1.40;;
44766;SDS011;30487;48.716;9.272;2023-02-28T00:09:44;3.63;;;1.67;;
44766;SDS011;30487;48.716;9.272;2023-02-28T00:12:09;3.90;;;1.52;;
44766;SDS011;30487;48.716;9.272;2023-02-28T00:14:35;3.85;;;1.70;;
44766;SDS011;30487;48.716;9.272;2023-02-28T00:17:01;5.07;;;1.90;;
44766;SDS011;30487;48.716;9.272;2023-02-28T00:19:27;2.97;;;1.30;;
44766;SDS011;30487;48.716;9.272;2023-02-28T00:21:52;4.50;;;1.58;;
44766;SDS011;30487;48.716;9.272;2023-02-28T00:24:18;2.72;;;1.30;;
44766;SDS011;30487;48.716;9.272;2023-02-28T00:26:43;2.75;;;1.40;;
44766;SDS011;30487;48.716;9.272;2023-02-28T00:29:09;5.20;;;1.60;;
44766;SDS011;30487;48.716;9.272;2023-02-28T00:31:35;4.90;;;1.50;;
44766;SDS011;30487;48.716;9.272;2023-02-28T00:34:00;4.32;;;1.20;;
44766;SDS011;30487;48.716;9.272;2023-02-28T00:36:26;4.90;;;1.60;;
44766;SDS011;30487;48.716;9.272;2023-02-28T00:38:51;4.38;;;1.90;;
44766;SDS011;30487;48.716;9.272;2023-02-28T00:41:17;2.78;;;1.30;;
44766;SDS011;30487;48.716;9.272;2023-02-28T00:43:43;5.78;;;1.70;;
44766;SDS011;30487;48.716;9.272;2023-02-28T00:46:09;2.78;;;1.38;;
44766;SDS011;30487;48.716;9.272;2023-02-28T00:48:34;3.20;;;1.50;;
44766;SDS011;30487;48.716;9.272;2023-02-28T00:51:00;5.88;;;1.63;;
44766;SDS011;30487;48.716;9.272;2023-02-28T00:53:26;2.70;;;1.27;;
44766;SDS011;30487;48.716;9.272;2023-02-28T00:55:52;5.32;;;1.67;;
44766;SDS011;30487;48.716;9.272;2023-02-28T00:58:17;3.17;;;1.67;;
44766;SDS011;30487;48.716;9.272;2023-02-28T01:00:43;2.72;;;1.15;;
44766;SDS011;30487;48.716;9.272;2023-02-28T01:03:14;3.28;;;1.40;;
44766;SDS011;30487;48.716;9.272;2023-02-28T01:05:41;4.47;;;1.73;;
44766;SDS011;30487;48.716;9.272;2023-02-28T01:08:06;3.75;;;1.50;;
44766;SDS011;30487;48.716;9.272;2023-02-28T01:10:32;5.97;;;1.60;;
44766;SDS011;30487;48.716;9.272;2023-02-28T01:12:57;4.95;;;1.70;;
44766;SDS011;30487;48.716;9.272;2023-02-28T01:15:23;4.97;;;1.90;;
44766;SDS011;30487;48.716;9.272;2023-02-28T01:17:49;3.78;;;1.55;;
44766;SDS011;30487;48.716;9.272;2023-02-28T01:20:14;3.03;;;1.38;;
44766;SDS011;30487;48.716;9.272;2023-02-28T01:22:40;4.53;;;1.70;;
44766;SDS011;30487;48.716;9.272;2023-02-28T01:25:06;3.58;;;1.65;;
44766;SDS011;30487;48.716;9.272;2023-02-28T01:27:32;4.47;;;1.52;;
44766;SDS011;30487;48.716;9.272;2023-02-28T01:29:58;6.03;;;1.95;;
44766;SDS011;30487;48.716;9.272;2023-02-28T01:32:24;4.95;;;2.13;;
44766;SDS011;30487;48.716;9.272;2023-02-28T01:34:49;4.93;;;1.80;;
44766;SDS011;30487;48.716;9.272;2023-02-28T01:37:15;6.00;;;2.05;;
44766;SDS011;30487;48.716;9.272;2023-02-28T01:39:40;4.25;;;1.85;;
44766;SDS011;30487;48.716;9.272;2023-02-28T01:42:08;6.55;;;2.05;;
44766;SDS011;30487;48.716;9.272;2023-02-28T01:47:19;4.95;;;2.08;;
44766;SDS011;30487;48.716;9.272;2023-02-28T01:49:45;4.55;;;1.83;;
44766;SDS011;30487;48.716;9.272;2023-02-28T01:52:11;3.85;;;1.70;;
44766;SDS011;30487;48.716;9.272;2023-02-28T01:54:43;5.88;;;1.75;;
44766;SDS011;30487;48.716;9.272;2023-02-28T01:57:14;3.80;;;1.35;;
44766;SDS011;30487;48.716;9.272;2023-02-28T01:59:46;4.18;;;2.00;;
44766;SDS011;30487;48.716;9.272;2023-02-28T02:02:16;4.13;;;2.00;;
44766;SDS011;30487;48.716;9.272;2023-02-28T02:04:46;5.53;;;2.03;;
44766;SDS011;30487;48.716;9.272;2023-02-28T02:07:51;3.95;;;1.90;;
44766;SDS011;30487;48.716;9.272;2023-02-28T02:10:21;4.90;;;1.90;;
44766;SDS011;30487;48.716;9.272;2023-02-28T02:18:26;5.88;;;2.00;;
44766;SDS011;30487;48.716;9.272;2023-02-28T02:26:52;3.92;;;2.17;;
44766;SDS011;30487;48.716;9.272;2023-02-28T02:37:29;4.03;;;2.00;;
44766;SDS011;30487;48.716;9.272;2023-02-28T02:48:11;4.47;;;2.10;;
44766;SDS011;30487;48.716;9.272;2023-02-28T02:50:45;6.32;;;2.13;;
44766;SDS011;30487;48.716;9.272;2023-02-28T02:53:15;4.55;;;2.15;;
44766;SDS011;30487;48.716;9.272;2023-02-28T02:55:47;4.75;;;1.92;;
44766;SDS011;30487;48.716;9.272;2023-02-28T02:58:19;4.95;;;2.33;;
44766;SDS011;30487;48.716;9.272;2023-02-28T03:00:50;4.63;;;2.20;;
44766;SDS011;30487;48.716;9.272;2023-02-28T03:03:19;5.00;;;2.10;;
44766;SDS011;30487;48.716;9.272;2023-02-28T03:05:54;5.55;;;2.20;;
44766;SDS011;30487;48.716;9.272;2023-02-28T03:08:21;4.95;;;2.30;;
44766;SDS011;30487;48.716;9.272;2023-02-28T03:10:50;4.53;;;2.00;;
44766;SDS011;30487;48.716;9.272;2023-02-28T03:16:47;4.40;;;2.20;;
44766;SDS011;30487;48.716;9.272;2023-02-28T03:19:16;5.65;;;2.70;;
44766;SDS011;30487;48.716;9.272;2023-02-28T03:24:53;6.13;;;2.40;;
44766;SDS011;30487;48.716;9.272;2023-02-28T03:27:27;5.07;;;2.53;;
44766;SDS011;30487;48.716;9.272;2023-02-28T03:29:59;4.97;;;2.33;;
44766;SDS011;30487;48.716;9.272;2023-02-28T03:35:38;4.43;;;2.22;;
44766;SDS011;30487;48.716;9.272;2023-02-28T03:38:18;6.30;;;2.30;;
44766;SDS011;30487;48.716;9.272;2023-02-28T03:40:52;5.60;;;2.30;;
44766;SDS011;30487;48.716;9.272;2023-02-28T03:43:43;5.35;;;2.28;;
44766;SDS011;30487;48.716;9.272;2023-02-28T03:46:14;6.68;;;2.63;;
44766;SDS011;30487;48.716;9.272;2023-02-28T03:48:51;5.32;;;2.38;;
44766;SDS011;30487;48.716;9.272;2023-02-28T03:51:24;4.53;;;2.30;;
44766;SDS011;30487;48.716;9.272;2023-02-28T03:53:59;6.15;;;2.70;;
44766;SDS011;30487;48.716;9.272;2023-02-28T03:56:32;5.18;;;2.45;;
44766;SDS011;30487;48.716;9.272;2023-02-28T04:01:35;6.72;;;2.67;;
44766;SDS011;30487;48.716;9.272;2023-02-28T04:04:06;5.45;;;2.50;;
44766;SDS011;30487;48.716;9.272;2023-02-28T04:06:33;6.10;;;2.60;;
44766;SDS011;30487;48.716;9.272;2023-02-28T04:08:59;6.82;;;2.50;;
44766;SDS011;30487;48.716;9.272;2023-02-28T04:14:10;6.60;;;2.20;;
44766;SDS011;30487;48.716;9.272;2023-02-28T04:16:38;5.97;;;2.65;;
44766;SDS011;30487;48.716;9.272;2023-02-28T04:19:06;6.05;;;2.58;;
44766;SDS011;30487;48.716;9.272;2023-02-28T04:21:33;6.97;;;2.38;;
44766;SDS011;30487;48.716;9.272;2023-02-28T04:24:00;6.00;;;2.83;;
44766;SDS011;30487;48.716;9.272;2023-02-28T04:26:30;5.10;;;2.50;;
44766;SDS011;30487;48.716;9.272;2023-02-28T04:29:00;6.82;;;2.67;;
44766;SDS011;30487;48.716;9.272;2023-02-28T04:31:27;4.72;;;2.60;;
44766;SDS011;30487;48.716;9.272;2023-02-28T04:33:52;6.68;;;2.72;;
44766;SDS011;30487;48.716;9.272;2023-02-28T04:36:18;5.72;;;2.65;;
44766;SDS011;30487;48.716;9.272;2023-02-28T04:38:44;6.38;;;2.80;;
44766;SDS011;30487;48.716;9.272;2023-02-28T04:41:10;4.93;;;2.45;;
44766;SDS011;30487;48.716;9.272;2023-02-28T04:43:37;6.88;;;2.83;;
44766;SDS011;30487;48.716;9.272;2023-02-28T04:46:04;7.07;;;3.10;;
44766;SDS011;30487;48.716;9.272;2023-02-28T04:48:31;8.93;;;3.92;;
44766;SDS011;30487;48.716;9.272;2023-02-28T04:51:01;7.22;;;3.60;;
44766;SDS011;30487;48.716;9.272;2023-02-28T04:53:29;6.85;;;3.10;;
44766;SDS011;30487;48.716;9.272;2023-02-28T04:55:55;6.30;;;2.95;;
44766;SDS011;30487;48.716;9.272;2023-02-28T04:58:21;6.07;;;2.88;;
44766;SDS011;30487;48.716;9.272;2023-02-28T05:00:49;6.45;;;3.00;;
44766;SDS011;30487;48.716;9.272;2023-02-28T05:03:16;7.55;;;2.90;;
44766;SDS011;30487;48.716;9.272;2023-02-28T05:05:41;5.63;;;2.72;;
44766;SDS011;30487;48.716;9.272;2023-02-28T05:08:07;7.40;;;3.13;;
44766;SDS011;30487;48.716;9.272;2023-02-28T05:10:32;6.15;;;2.85;;
44766;SDS011;30487;48.716;9.272;2023-02-28T05:12:58;4.60;;;2.80;;
44766;SDS011;30487;48.716;9.272;2023-02-28T05:15:24;7.53;;;3.20;;
44766;SDS011;30487;48.716;9.272;2023-02-28T05:17:50;6.68;;;3.13;;
44766;SDS011;30487;48.716;9.272;2023-02-28T05:20:15;8.30;;;3.08;;
44766;SDS011;30487;48.716;9.272;2023-02-28T05:22:41;7.55;;;3.20;;
44766;SDS011;30487;48.716;9.272;2023-02-28T05:25:08;5.95;;;3.03;;
44766;SDS011;30487;48.716;9.272;2023-02-28T05:27:37;8.55;;;3.22;;
44766;SDS011;30487;48.716;9.272;2023-02-28T05:30:03;7.40;;;3.10;;
44766;SDS011;30487;48.716;9.272;2023-02-28T05:32:30;6.90;;;2.88;;
44766;SDS011;30487;48.716;9.272;2023-02-28T05:34:56;6.60;;;3.08;;
44766;SDS011;30487;48.716;9.272;2023-02-28T05:37:22;5.55;;;2.70;;
44766;SDS011;30487;48.716;9.272;2023-02-28T05:39:47;5.97;;;3.03;;
44766;SDS011;30487;48.716;9.272;2023-02-28T05:42:13;5.32;;;2.90;;
44766;SDS011;30487;48.716;9.272;2023-02-28T05:44:38;7.85;;;3.33;;
44766;SDS011;30487;48.716;9.272;2023-02-28T05:47:04;4.80;;;2.70;;
44766;SDS011;30487;48.716;9.272;2023-02-28T05:49:29;6.97;;;3.00;;
44766;SDS011;30487;48.716;9.272;2023-02-28T05:51:55;6.18;;;3.03;;
44766;SDS011;30487;48.716;9.272;2023-02-28T05:54:20;8.73;;;3.42;;
44766;SDS011;30487;48.716;9.272;2023-02-28T05:56:46;10.05;;;3.40;;
44766;SDS011;30487;48.716;9.272;2023-02-28T05:59:12;5.78;;;3.40;;
44766;SDS011;30487;48.716;9.272;2023-02-28T06:01:39;7.68;;;3.65;;
44766;SDS011;30487;48.716;9.272;2023-02-28T06:04:09;6.93;;;3.25;;
44766;SDS011;30487;48.716;9.272;2023-02-28T06:06:35;9.55;;;3.78;;
44766;SDS011;30487;48.716;9.272;2023-02-28T06:09:02;6.95;;;3.40;;
44766;SDS011;30487;48.716;9.272;2023-02-28T06:11:29;8.13;;;3.53;;
44766;SDS011;30487;48.716;9.272;2023-02-28T06:13:58;7.47;;;3.65;;
44766;SDS011;30487;48.716;9.272;2023-02-28T06:16:29;7.50;;;3.72;;
44766;SDS011;30487;48.716;9.272;2023-02-28T06:18:57;9.07;;;3.58;;
44766;SDS011;30487;48.716;9.272;2023-02-28T06:21:26;6.20;;;3.60;;
44766;SDS011;30487;48.716;9.272;2023-02-28T06:23:52;7.45;;;3.70;;
44766;SDS011;30487;48.716;9.272;2023-02-28T06:26:18;7.82;;;3.78;;
44766;SDS011;30487;48.716;9.272;2023-02-28T06:28:44;7.95;;;3.88;;
44766;SDS011;30487;48.716;9.272;2023-02-28T06:31:12;8.82;;;3.83;;
44766;SDS011;30487;48.716;9.272;2023-02-28T06:33:39;8.57;;;3.53;;
44766;SDS011;30487;48.716;9.272;2023-02-28T06:36:06;7.13;;;3.67;;
44766;SDS011;30487;48.716;9.272;2023-02-28T06:38:32;8.15;;;3.95;;
44766;SDS011;30487;48.716;9.272;2023-02-28T06:40:59;7.47;;;3.75;;
44766;SDS011;30487;48.716;9.272;2023-02-28T06:43:27;10.23;;;3.90;;
44766;SDS011;30487;48.716;9.272;2023-02-28T06:45:54;10.68;;;4.15;;
44766;SDS011;30487;48.716;9.272;2023-02-28T06:48:21;8.10;;;4.50;;
44766;SDS011;30487;48.716;9.272;2023-02-28T06:50:47;9.07;;;4.22;;
44766;SDS011;30487;48.716;9.272;2023-02-28T06:53:13;7.43;;;4.07;;
44766;SDS011;30487;48.716;9.272;2023-02-28T06:55:39;8.75;;;4.20;;
44766;SDS011;30487;48.716;9.272;2023-02-28T06:58:05;11.30;;;4.05;;
44766;SDS011;30487;48.716;9.272;2023-02-28T07:00:43;10.57;;;4.35;;
44766;SDS011;30487;48.716;9.272;2023-02-28T07:03:10;9.15;;;4.32;;
44766;SDS011;30487;48.716;9.272;2023-02-28T07:05:36;8.38;;;4.03;;
44766;SDS011;30487;48.716;9.272;2023-02-28T07:08:03;8.45;;;4.30;;
44766;SDS011;30487;48.716;9.272;2023-02-28T07:10:29;9.00;;;4.20;;
44766;SDS011;30487;48.716;9.272;2023-02-28T07:12:55;9.85;;;4.55;;
44766;SDS011;30487;48.716;9.272;2023-02-28T07:15:20;12.82;;;5.03;;
44766;SDS011;30487;48.716;9.272;2023-02-28T07:17:46;11.07;;;5.05;;
44766;SDS011;30487;48.716;9.272;2023-02-28T07:20:12;11.15;;;4.72;;
44766;SDS011;30487;48.716;9.272;2023-02-28T07:22:38;10.23;;;4.47;;
44766;SDS011;30487;48.716;9.272;2023-02-28T07:25:04;8.18;;;4.28;;
44766;SDS011;30487;48.716;9.272;2023-02-28T07:27:30;10.20;;;4.68;;
44766;SDS011;30487;48.716;9.272;2023-02-28T07:29:55;9.77;;;4.70;;
44766;SDS011;30487;48.716;9.272;2023-02-28T07:32:21;8.07;;;4.38;;
44766;SDS011;30487;48.716;9.272;2023-02-28T07:34:47;8.82;;;4.15;;
44766;SDS011;30487;48.716;9.272;2023-02-28T07:37:13;11.27;;;4.32;;
44766;SDS011;30487;48.716;9.272;2023-02-28T07:39:39;10.77;;;4.95;;
44766;SDS011;30487;48.716;9.272;2023-02-28T07:42:08;8.98;;;4.53;;
44766;SDS011;30487;48.716;9.272;2023-02-28T07:44:37;8.82;;;4.57;;
44766;SDS011;30487;48.716;9.272;2023-02-28T07:47:08;10.13;;;4.70;;
44766;SDS011;30487;48.716;9.272;2023-02-28T07:49:38;9.85;;;5.20;;
44766;SDS011;30487;48.716;9.272;2023-02-28T07:52:07;8.52;;;4.57;;
44766;SDS011;30487;48.716;9.272;2023-02-28T07:54:33;7.60;;;4.53;;
44766;SDS011;30487;48.716;9.272;2023-02-28T07:56:58;11.02;;;4.80;;
44766;SDS011;30487;48.716;9.272;2023-02-28T07:59:24;11.80;;;5.15;;
44766;SDS011;30487;48.716;9.272;2023-02-28T08:01:50;10.50;;;4.78;;
44766;SDS011;30487;48.716;9.272;2023-02-28T08:04:16;8.25;;;4.35;;
44766;SDS011;30487;48.716;9.272;2023-02-28T08:06:42;10.20;;;5.40;;
44766;SDS011;30487;48.716;9.272;2023-02-28T08:09:08;9.35;;;4.53;;
44766;SDS011;30487;48.716;9.272;2023-02-28T08:11:33;11.63;;;4.30;;
44766;SDS011;30487;48.716;9.272;2023-02-28T08:13:59;9.88;;;5.05;;
44766;SDS011;30487;48.716;9.272;2023-02-28T08:16:25;11.80;;;5.25;;
44766;SDS011;30487;48.716;9.272;2023-02-28T08:18:51;12.90;;;5.03;;
44766;SDS011;30487;48.716;9.272;2023-02-28T08:21:17;10.23;;;5.10;;
44766;SDS011;30487;48.716;9.272;2023-02-28T08:23:43;11.02;;;5.10;;
44766;SDS011;30487;48.716;9.272;2023-02-28T08:26:11;11.63;;;5.40;;
44766;SDS011;30487;48.716;9.272;2023-02-28T08:28:36;14.00;;;5.47;;
44766;SDS011;30487;48.716;9.272;2023-02-28T08:31:06;13.10;;;6.00;;
44766;SDS011;30487;48.716;9.272;2023-02-28T08:33:33;13.07;;;5.70;;
44766;SDS011;30487;48.716;9.272;2023-02-28T08:35:59;9.27;;;4.95;;
44766;SDS011;30487;48.716;9.272;2023-02-28T08:38:25;10.05;;;4.82;;
44766;SDS011;30487;48.716;9.272;2023-02-28T08:40:56;10.80;;;5.05;;
44766;SDS011;30487;48.716;9.272;2023-02-28T08:43:27;10.73;;;5.13;;
44766;SDS011;30487;48.716;9.272;2023-02-28T08:45:53;11.02;;;4.97;;
44766;SDS011;30487;48.716;9.272;2023-02-28T08:48:21;8.68;;;4.63;;
44766;SDS011;30487;48.716;9.272;2023-02-28T08:50:59;9.98;;;4.60;;
44766;SDS011;30487;48.716;9.272;2023-02-28T08:53:26;8.63;;;4.45;;
44766;SDS011;30487;48.716;9.272;2023-02-28T08:55:59;10.85;;;4.95;;
44766;SDS011;30487;48.716;9.272;2023-02-28T08:58:26;9.02;;;5.03;;
44766;SDS011;30487;48.716;9.272;2023-02-28T09:00:52;10.68;;;5.00;;
44766;SDS011;30487;48.716;9.272;2023-02-28T09:03:18;11.07;;;4.95;;
44766;SDS011;30487;48.716;9.272;2023-02-28T09:05:57;9.73;;;4.97;;
44766;SDS011;30487;48.716;9.272;2023-02-28T09:08:25;10.00;;;4.85;;
44766;SDS011;30487;48.716;9.272;2023-02-28T09:10:52;10.80;;;5.47;;
44766;SDS011;30487;48.716;9.272;2023-02-28T09:13:19;11.23;;;5.40;;
44766;SDS011;30487;48.716;9.272;2023-02-28T09:15:45;11.98;;;6.30;;
44766;SDS011;30487;48.716;9.272;2023-02-28T09:18:11;15.60;;;6.72;;
44766;SDS011;30487;48.716;9.272;2023-02-28T09:20:38;12.68;;;5.95;;
44766;SDS011;30487;48.716;9.272;2023-02-28T09:23:04;9.85;;;5.32;;
44766;SDS011;30487;48.716;9.272;2023-02-28T09:25:31;8.50;;;5.30;;
44766;SDS011;30487;48.716;9.272;2023-02-28T09:27:56;8.98;;;5.07;;
44766;SDS011;30487;48.716;9.272;2023-02-28T09:30:22;10.23;;;5.47;;
44766;SDS011;30487;48.716;9.272;2023-02-28T09:32:47;10.68;;;4.95;;
44766;SDS011;30487;48.716;9.272;2023-02-28T09:35:24;11.00;;;4.95;;
44766;SDS011;30487;48.716;9.272;2023-02-28T09:37:51;8.68;;;5.25;;
44766;SDS011;30487;48.716;9.272;2023-02-28T09:40:20;12.93;;;5.15;;
44766;SDS011;30487;48.716;9.272;2023-02-28T09:42:49;10.65;;;5.50;;
44766;SDS011;30487;48.716;9.272;2023-02-28T09:45:24;11.13;;;5.00;;
44766;SDS011;30487;48.716;9.272;2023-02-28T09:48:14;14.32;;;6.22;;
44766;SDS011;30487;48.716;9.272;2023-02-28T09:50:51;14.57;;;7.13;;
44766;SDS011;30487;48.716;9.272;2023-02-28T09:53:31;13.07;;;5.35;;
44766;SDS011;30487;48.716;9.272;2023-02-28T09:56:04;11.57;;;5.65;;
44766;SDS011;30487;48.716;9.272;2023-02-28T09:58:55;12.90;;;5.80;;
44766;SDS011;30487;48.716;9.272;2023-02-28T10:02:00;9.63;;;5.18;;
44766;SDS011;30487;48.716;9.272;2023-02-28T10:04:54;10.73;;;5.35;;
44766;SDS011;30487;48.716;9.272;2023-02-28T10:07:30;9.27;;;5.10;;
44766;SDS011;30487;48.716;9.272;2023-02-28T10:10:42;7.88;;;5.10;;
44766;SDS011;30487;48.716;9.272;2023-02-28T10:15:50;12.20;;;5.10;;
44766;SDS011;30487;48.716;9.272;2023-02-28T10:18:21;9.88;;;5.28;;
44766;SDS011;30487;48.716;9.272;2023-02-28T10:20:50;9.93;;;5.18;;
44766;SDS011;30487;48.716;9.272;2023-02-28T10:23:25;11.85;;;5.43;;
44766;SDS011;30487;48.716;9.272;2023-02-28T10:26:03;11.00;;;5.30;;
44766;SDS011;30487;48.716;9.272;2023-02-28T10:28:36;10.77;;;5.65;;
44766;SDS011;30487;48.716;9.272;2023-02-28T10:31:01;9.77;;;5.22;;
44766;SDS011;30487;48.716;9.272;2023-02-28T10:33:29;10.23;;;5.38;;
44766;SDS011;30487;48.716;9.272;2023-02-28T10:35:57;12.45;;;5.57;;
44766;SDS011;30487;48.716;9.272;2023-02-28T10:38:24;12.73;;;6.25;;
44766;SDS011;30487;48.716;9.272;2023-02-28T10:41:31;12.75;;;5.38;;
44766;SDS011;30487;48.716;9.272;2023-02-28T10:43:56;11.43;;;5.30;;
44766;SDS011;30487;48.716;9.272;2023-02-28T10:46:44;14.27;;;5.50;;
44766;SDS011;30487;48.716;9.272;2023-02-28T10:49:15;9.98;;;5.18;;
44766;SDS011;30487;48.716;9.272;2023-02-28T10:51:57;9.52;;;5.15;;
44766;SDS011;30487;48.716;9.272;2023-02-28T10:54:32;9.80;;;5.45;;
44766;SDS011;30487;48.716;9.272;2023-02-28T10:57:15;10.88;;;5.13;;
44766;SDS011;30487;48.716;9.272;2023-02-28T10:59:43;9.88;;;5.03;;
44766;SDS011;30487;48.716;9.272;2023-02-28T11:04:53;10.57;;;5.03;;
44766;SDS011;30487;48.716;9.272;2023-02-28T11:09:48;10.75;;;6.03;;
44766;SDS011;30487;48.716;9.272;2023-02-28T11:14:52;11.15;;;5.20;;
44766;SDS011;30487;48.716;9.272;2023-02-28T11:17:27;11.35;;;5.63;;
44766;SDS011;30487;48.716;9.272;2023-02-28T11:20:05;9.70;;;5.35;;
44766;SDS011;30487;48.716;9.272;2023-02-28T11:22:34;12.68;;;5.90;;
44766;SDS011;30487;48.716;9.272;2023-02-28T11:25:09;10.82;;;5.60;;
44766;SDS011;30487;48.716;9.272;2023-02-28T11:27:57;11.35;;;5.55;;
44766;SDS011;30487;48.716;9.272;2023-02-28T11:30:28;10.88;;;5.28;;
44766;SDS011;30487;48.716;9.272;2023-02-28T11:32:53;9.30;;;5.60;;
44766;SDS011;30487;48.716;9.272;2023-02-28T11:35:33;9.90;;;5.68;;
44766;SDS011;30487;48.716;9.272;2023-02-28T11:38:04;8.65;;;5.15;;
44766;SDS011;30487;48.716;9.272;2023-02-28T11:40:56;9.90;;;4.75;;
44766;SDS011;30487;48.716;9.272;2023-02-28T11:51:18;9.05;;;5.38;;
44766;SDS011;30487;48.716;9.272;2023-02-28T11:59:23;8.45;;;5.05;;
44766;SDS011;30487;48.716;9.272;2023-02-28T12:02:34;12.80;;;5.25;;
44766;SDS011;30487;48.716;9.272;2023-02-28T12:10:44;9.10;;;4.90;;
44766;SDS011;30487;48.716;9.272;2023-02-28T12:27:12;7.97;;;5.07;;
44766;SDS011;30487;48.716;9.272;2023-02-28T12:29:47;8.63;;;5.40;;
44766;SDS011;30487;48.716;9.272;2023-02-28T12:32:32;9.35;;;5.47;;
44766;SDS011;30487;48.716;9.272;2023-02-28T12:37:36;8.70;;;5.00;;
44766;SDS011;30487;48.716;9.272;2023-02-28T12:40:22;7.40;;;4.90;;
44766;SDS011;30487;48.716;9.272;2023-02-28T12:42:55;8.02;;;5.03;;
44766;SDS011;30487;48.716;9.272;2023-02-28T12:45:33;8.63;;;5.10;;
44766;SDS011;30487;48.716;9.272;2023-02-28T12:48:08;9.85;;;5.25;;
44766;SDS011;30487;48.716;9.272;2023-02-28T12:50:39;9.00;;;4.65;;
44766;SDS011;30487;48.716;9.272;2023-02-28T12:53:17;10.57;;;5.25;;
44766;SDS011;30487;48.716;9.272;2023-02-28T12:56:01;6.85;;;4.95;;
44766;SDS011;30487;48.716;9.272;2023-02-28T12:58:50;7.10;;;5.38;;
44766;SDS011;30487;48.716;9.272;2023-02-28T13:10:05;7.43;;;5.38;;
44766;SDS011;30487;48.716;9.272;2023-02-28T13:12:32;8.38;;;5.03;;
44766;SDS011;30487;48.716;9.272;2023-02-28T13:15:02;9.45;;;6.05;;
44766;SDS011;30487;48.716;9.272;2023-02-28T13:17:52;9.18;;;5.60;;
44766;SDS011;30487;48.716;9.272;2023-02-28T13:20:26;8.07;;;5.68;;
44766;SDS011;30487;48.716;9.272;2023-02-28T13:22:58;9.50;;;5.60;;
44766;SDS011;30487;48.716;9.272;2023-02-28T13:28:09;9.43;;;5.18;;
44766;SDS011;30487;48.716;9.272;2023-02-28T13:35:46;8.57;;;5.40;;
44766;SDS011;30487;48.716;9.272;2023-02-28T13:38:15;10.88;;;5.82;;
44766;SDS011;30487;48.716;9.272;2023-02-28T13:40:46;8.82;;;5.45;;
44766;SDS011;30487;48.716;9.272;2023-02-28T13:43:12;8.85;;;5.53;;
44766;SDS011;30487;48.716;9.272;2023-02-28T13:45:54;7.13;;;5.10;;
44766;SDS011;30487;48.716;9.272;2023-02-28T13:51:22;9.07;;;5.32;;
44766;SDS011;30487;48.716;9.272;2023-02-28T14:05:20;9.95;;;5.05;;
44766;SDS011;30487;48.716;9.272;2023-02-28T14:07:51;9.95;;;5.05;;
44766;SDS011;30487;48.716;9.272;2023-02-28T14:12:58;8.25;;;5.32;;
44766;SDS011;30487;48.716;9.272;2023-02-28T14:18:27;9.95;;;4.93;;
44766;SDS011;30487;48.716;9.272;2023-02-28T14:20:58;7.25;;;4.95;;
44766;SDS011;30487;48.716;9.272;2023-02-28T14:26:41;8.73;;;5.18;;
44766;SDS011;30487;48.716;9.272;2023-02-28T14:29:36;8.13;;;4.65;;
44766;SDS011;30487;48.716;9.272;2023-02-28T14:32:32;7.20;;;4.68;;
44766;SDS011;30487;48.716;9.272;2023-02-28T14:35:22;9.07;;;5.40;;
44766;SDS011;30487;48.716;9.272;2023-02-28T14:38:18;8.13;;;4.88;;
44766;SDS011;30487;48.716;9.272;2023-02-28T14:40:49;8.60;;;5.05;;
44766;SDS011;30487;48.716;9.272;2023-02-28T14:43:22;7.70;;;4.95;;
44766;SDS011;30487;48.716;9.272;2023-02-28T14:46:00;8.98;;;5.63;;
44766;SDS011;30487;48.716;9.272;2023-02-28T14:48:27;9.13;;;5.13;;
44766;SDS011;30487;48.716;9.272;2023-02-28T14:50:57;7.75;;;5.05;;
44766;SDS011;30487;48.716;9.272;2023-02-28T14:53:28;11.18;;;5.00;;
44766;SDS011;30487;48.716;9.272;2023-02-28T14:55:55;9.65;;;5.18;;
44766;SDS011;30487;48.716;9.272;2023-02-28T14:58:28;10.55;;;6.18;;
44766;SDS011;30487;48.716;9.272;2023-02-28T15:00:57;9.35;;;6.15;;
44766;SDS011;30487;48.716;9.272;2023-02-28T15:03:28;9.43;;;5.75;;
44766;SDS011;30487;48.716;9.272;2023-02-28T15:05:57;7.50;;;5.13;;
44766;SDS011;30487;48.716;9.272;2023-02-28T15:08:25;9.95;;;5.45;;
44766;SDS011;30487;48.716;9.272;2023-02-28T15:13:52;9.27;;;5.40;;
44766;SDS011;30487;48.716;9.272;2023-02-28T15:16:25;8.55;;;5.28;;
44766;SDS011;30487;48.716;9.272;2023-02-28T15:18:57;8.85;;;5.45;;
44766;SDS011;30487;48.716;9.272;2023-02-28T15:21:33;10.13;;;5.25;;
44766;SDS011;30487;48.716;9.272;2023-02-28T15:24:05;7.50;;;4.90;;
44766;SDS011;30487;48.716;9.272;2023-02-28T15:26:38;7.68;;;5.15;;
44766;SDS011;30487;48.716;9.272;2023-02-28T15:29:07;10.20;;;5.20;;
44766;SDS011;30487;48.716;9.272;2023-02-28T15:31:46;10.27;;;5.72;;
44766;SDS011;30487;48.716;9.272;2023-02-28T15:34:24;10.50;;;5.35;;
44766;SDS011;30487;48.716;9.272;2023-02-28T15:36:54;9.32;;;5.22;;
44766;SDS011;30487;48.716;9.272;2023-02-28T15:39:21;9.20;;;5.70;;
44766;SDS011;30487;48.716;9.272;2023-02-28T15:41:48;8.88;;;5.53;;
44766;SDS011;30487;48.716;9.272;2023-02-28T15:46:53;8.27;;;5.40;;
44766;SDS011;30487;48.716;9.272;2023-02-28T15:49:23;8.95;;;5.03;;
44766;SDS011;30487;48.716;9.272;2023-02-28T15:51:49;11.70;;;5.55;;
44766;SDS011;30487;48.716;9.272;2023-02-28T15:54:27;7.63;;;5.45;;
44766;SDS011;30487;48.716;9.272;2023-02-28T15:56:57;10.68;;;5.97;;
44766;SDS011;30487;48.716;9.272;2023-02-28T15:59:27;10.02;;;5.65;;
44766;SDS011;30487;48.716;9.272;2023-02-28T16:04:35;7.82;;;5.00;;
44766;SDS011;30487;48.716;9.272;2023-02-28T16:07:03;10.85;;;6.13;;
44766;SDS011;30487;48.716;9.272;2023-02-28T16:09:30;9.93;;;5.40;;
44766;SDS011;30487;48.716;9.272;2023-02-28T16:11:56;11.50;;;5.63;;
44766;SDS011;30487;48.716;9.272;2023-02-28T16:14:26;11.05;;;6.32;;
44766;SDS011;30487;48.716;9.272;2023-02-28T16:16:55;12.60;;;7.43;;
44766;SDS011;30487;48.716;9.272;2023-02-28T16:19:27;14.40;;;6.70;;
44766;SDS011;30487;48.716;9.272;2023-02-28T16:21:52;10.07;;;6.18;;
44766;SDS011;30487;48.716;9.272;2023-02-28T16:24:18;14.48;;;6.28;;
44766;SDS011;30487;48.716;9.272;2023-02-28T16:26:46;10.38;;;6.00;;
44766;SDS011;30487;48.716;9.272;2023-02-28T16:29:27;10.18;;;5.57;;
44766;SDS011;30487;48.716;9.272;2023-02-28T16:31:59;9.32;;;5.45;;
44766;SDS011;30487;48.716;9.272;2023-02-28T16:34:25;10.18;;;5.60;;
44766;SDS011;30487;48.716;9.272;2023-02-28T16:36:51;11.07;;;6.22;;
44766;SDS011;30487;48.716;9.272;2023-02-28T16:39:16;10.18;;;5.72;;
44766;SDS011;30487;48.716;9.272;2023-02-28T16:41:43;11.13;;;5.93;;
44766;SDS011;30487;48.716;9.272;2023-02-28T16:44:14;11.52;;;5.55;;
44766;SDS011;30487;48.716;9.272;2023-02-28T16:46:56;10.05;;;5.95;;
44766;SDS011;30487;48.716;9.272;2023-02-28T16:49:22;10.00;;;5.80;;
44766;SDS011;30487;48.716;9.272;2023-02-28T16:51:47;9.70;;;5.80;;
44766;SDS011;30487;48.716;9.272;2023-02-28T16:54:16;12.00;;;5.72;;
44766;SDS011;30487;48.716;9.272;2023-02-28T16:56:42;11.68;;;6.00;;
44766;SDS011;30487;48.716;9.272;2023-02-28T16:59:10;11.32;;;6.00;;
44766;SDS011;30487;48.716;9.272;2023-02-28T17:01:37;9.57;;;5.53;;
44766;SDS011;30487;48.716;9.272;2023-02-28T17:04:03;11.48;;;5.95;;
44766;SDS011;30487;48.716;9.272;2023-02-28T17:06:29;10.27;;;6.18;;
44766;SDS011;30487;48.716;9.272;2023-02-28T17:08:55;17.48;;;9.05;;
44766;SDS011;30487;48.716;9.272;2023-02-28T17:11:23;25.05;;;11.55;;
44766;SDS011;30487;48.716;9.272;2023-02-28T17:13:49;16.13;;;7.97;;
44766;SDS011;30487;48.716;9.272;2023-02-28T17:16:30;12.05;;;7.10;;
44766;SDS011;30487;48.716;9.272;2023-02-28T17:19:02;11.93;;;6.40;;
44766;SDS011;30487;48.716;9.272;2023-02-28T17:21:30;11.45;;;5.90;;